sensor_id;sensor_type;location;lat;lon;timestamp;P1;durP1;ratioP1;P2;durP2;ratioP2
31482;SDS011;18103;52.246;8.052;2023-10-09T00:01:24;3.43;;;2.10;;
31482;SDS011;18103;52.246;8.052;2023-10-09T00:03:52;8.57;;;2.73;;
31482;SDS011;18103;52.246;8.052;2023-10-09T00:06:19;5.33;;;2.57;;
31482;SDS011;18103;52.246;8.052;2023-10-09T00:08:55;6.83;;;2.77;;
31482;SDS011;18103;52.246;8.052;2023-10-09T00:11:21;8.90;;;2.97;;
31482;SDS011;18103;52.246;8.052;2023-10-09T00:13:47;8.23;;;2.70;;
31482;SDS011;18103;52.246;8.052;2023-10-09T00:16:22;7.27;;;3.10;;
31482;SDS011;18103;52.246;8.052;2023-10-09T00:19:07;8.37;;;2.63;;
31482;SDS011;18103;52.246;8.052;2023-10-09T00:21:52;8.30;;;2.53;;
31482;SDS011;18103;52.246;8.052;2023-10-09T00:24:20;7.93;;;2.57;;
31482;SDS011;18103;52.246;8.052;2023-10-09T00:26:51;7.57;;;3.00;;
31482;SDS011;18103;52.246;8.052;2023-10-09T00:29:20;17.80;;;5.47;;
31482;SDS011;18103;52.246;8.052;2023-10-09T00:31:54;18.00;;;5.77;;
31482;SDS011;18103;52.246;8.052;2023-10-09T00:34:38;16.23;;;6.53;;
31482;SDS011;18103;52.246;8.052;2023-10-09T00:37:10;21.53;;;7.47;;
31482;SDS011;18103;52.246;8.052;2023-10-09T00:39:44;20.37;;;8.07;;
31482;SDS011;18103;52.246;8.052;2023-10-09T00:42:13;17.80;;;8.30;;
31482;SDS011;18103;52.246;8.052;2023-10-09T00:44:46;19.20;;;7.60;;
31482;SDS011;18103;52.246;8.052;2023-10-09T00:47:14;22.63;;;8.00;;
31482;SDS011;18103;52.246;8.052;2023-10-09T00:49:49;26.37;;;8.27;;
31482;SDS011;18103;52.246;8.052;2023-10-09T00:52:19;17.90;;;8.23;;
31482;SDS011;18103;52.246;8.052;2023-10-09T00:54:56;24.57;;;8.43;;
31482;SDS011;18103;52.246;8.052;2023-10-09T00:57:26;22.20;;;9.23;;
31482;SDS011;18103;52.246;8.052;2023-10-09T00:59:53;22.33;;;9.43;;
31482;SDS011;18103;52.246;8.052;2023-10-09T01:02:25;29.00;;;9.83;;
31482;SDS011;18103;52.246;8.052;2023-10-09T01:05:07;31.17;;;10.63;;
31482;SDS011;18103;52.246;8.052;2023-10-09T01:07:43;30.77;;;9.83;;
31482;SDS011;18103;52.246;8.052;2023-10-09T01:10:11;28.53;;;11.00;;
31482;SDS011;18103;52.246;8.052;2023-10-09T01:12:36;28.87;;;10.13;;
31482;SDS011;18103;52.246;8.052;2023-10-09T01:15:08;23.57;;;9.77;;
31482;SDS011;18103;52.246;8.052;2023-10-09T01:17:45;31.17;;;10.40;;
31482;SDS011;18103;52.246;8.052;2023-10-09T01:20:10;20.43;;;9.87;;
31482;SDS011;18103;52.246;8.052;2023-10-09T01:22:42;27.87;;;10.30;;
31482;SDS011;18103;52.246;8.052;2023-10-09T01:25:09;21.90;;;8.50;;
31482;SDS011;18103;52.246;8.052;2023-10-09T01:27:35;34.30;;;10.80;;
31482;SDS011;18103;52.246;8.052;2023-10-09T01:30:05;23.67;;;10.37;;
31482;SDS011;18103;52.246;8.052;2023-10-09T01:32:31;32.63;;;11.87;;
31482;SDS011;18103;52.246;8.052;2023-10-09T01:34:59;22.80;;;10.43;;
31482;SDS011;18103;52.246;8.052;2023-10-09T01:37:25;32.13;;;12.70;;
31482;SDS011;18103;52.246;8.052;2023-10-09T01:39:56;28.13;;;10.53;;
31482;SDS011;18103;52.246;8.052;2023-10-09T01:42:24;26.93;;;10.63;;
31482;SDS011;18103;52.246;8.052;2023-10-09T01:44:50;27.77;;;11.33;;
31482;SDS011;18103;52.246;8.052;2023-10-09T01:47:18;29.47;;;12.27;;
31482;SDS011;18103;52.246;8.052;2023-10-09T01:49:44;30.43;;;11.90;;
31482;SDS011;18103;52.246;8.052;2023-10-09T01:52:14;25.60;;;11.67;;
31482;SDS011;18103;52.246;8.052;2023-10-09T01:54:43;28.63;;;11.73;;
31482;SDS011;18103;52.246;8.052;2023-10-09T01:57:14;27.20;;;11.07;;
31482;SDS011;18103;52.246;8.052;2023-10-09T01:59:43;32.00;;;11.67;;
31482;SDS011;18103;52.246;8.052;2023-10-09T02:02:12;24.57;;;10.70;;
31482;SDS011;18103;52.246;8.052;2023-10-09T02:04:40;31.97;;;11.40;;
31482;SDS011;18103;52.246;8.052;2023-10-09T02:07:08;29.97;;;11.80;;
31482;SDS011;18103;52.246;8.052;2023-10-09T02:09:34;33.07;;;11.47;;
31482;SDS011;18103;52.246;8.052;2023-10-09T02:12:09;31.53;;;12.47;;
31482;SDS011;18103;52.246;8.052;2023-10-09T02:14:35;28.80;;;11.40;;
31482;SDS011;18103;52.246;8.052;2023-10-09T02:17:08;30.63;;;11.53;;
31482;SDS011;18103;52.246;8.052;2023-10-09T02:19:35;26.97;;;11.90;;
31482;SDS011;18103;52.246;8.052;2023-10-09T02:22:03;29.13;;;11.47;;
31482;SDS011;18103;52.246;8.052;2023-10-09T02:24:51;25.43;;;11.13;;
31482;SDS011;18103;52.246;8.052;2023-10-09T02:27:30;26.90;;;10.30;;
31482;SDS011;18103;52.246;8.052;2023-10-09T02:30:13;26.13;;;10.47;;
31482;SDS011;18103;52.246;8.052;2023-10-09T02:32:45;27.13;;;11.77;;
31482;SDS011;18103;52.246;8.052;2023-10-09T02:35:17;27.50;;;11.23;;
31482;SDS011;18103;52.246;8.052;2023-10-09T02:38:03;21.00;;;9.63;;
31482;SDS011;18103;52.246;8.052;2023-10-09T02:40:32;25.10;;;10.70;;
31482;SDS011;18103;52.246;8.052;2023-10-09T02:43:05;24.87;;;10.03;;
31482;SDS011;18103;52.246;8.052;2023-10-09T02:45:37;22.70;;;10.40;;
31482;SDS011;18103;52.246;8.052;2023-10-09T02:48:11;24.57;;;10.70;;
31482;SDS011;18103;52.246;8.052;2023-10-09T02:50:38;29.57;;;10.90;;
31482;SDS011;18103;52.246;8.052;2023-10-09T02:53:04;23.27;;;9.77;;
31482;SDS011;18103;52.246;8.052;2023-10-09T02:55:35;23.87;;;10.07;;
31482;SDS011;18103;52.246;8.052;2023-10-09T02:58:03;24.07;;;11.30;;
31482;SDS011;18103;52.246;8.052;2023-10-09T03:00:33;28.03;;;11.13;;
31482;SDS011;18103;52.246;8.052;2023-10-09T03:03:01;25.87;;;10.50;;
31482;SDS011;18103;52.246;8.052;2023-10-09T03:05:29;23.40;;;10.40;;
31482;SDS011;18103;52.246;8.052;2023-10-09T03:07:55;31.13;;;10.93;;
31482;SDS011;18103;52.246;8.052;2023-10-09T03:10:23;25.07;;;11.53;;
31482;SDS011;18103;52.246;8.052;2023-10-09T03:12:49;24.97;;;10.83;;
31482;SDS011;18103;52.246;8.052;2023-10-09T03:15:21;28.93;;;11.13;;
31482;SDS011;18103;52.246;8.052;2023-10-09T03:17:47;25.17;;;10.17;;
31482;SDS011;18103;52.246;8.052;2023-10-09T03:20:15;19.00;;;9.70;;
31482;SDS011;18103;52.246;8.052;2023-10-09T03:22:43;27.40;;;10.80;;
31482;SDS011;18103;52.246;8.052;2023-10-09T03:25:13;33.47;;;11.57;;
31482;SDS011;18103;52.246;8.052;2023-10-09T03:27:42;28.97;;;11.33;;
31482;SDS011;18103;52.246;8.052;2023-10-09T03:30:10;26.23;;;10.03;;
31482;SDS011;18103;52.246;8.052;2023-10-09T03:32:42;28.97;;;10.23;;
31482;SDS011;18103;52.246;8.052;2023-10-09T03:35:08;28.77;;;11.13;;
31482;SDS011;18103;52.246;8.052;2023-10-09T03:37:38;25.30;;;10.73;;
31482;SDS011;18103;52.246;8.052;2023-10-09T03:40:06;23.30;;;10.53;;
31482;SDS011;18103;52.246;8.052;2023-10-09T03:42:33;26.33;;;10.47;;
31482;SDS011;18103;52.246;8.052;2023-10-09T03:45:01;22.43;;;10.47;;
31482;SDS011;18103;52.246;8.052;2023-10-09T03:47:31;21.30;;;10.53;;
31482;SDS011;18103;52.246;8.052;2023-10-09T03:49:56;22.03;;;10.20;;
31482;SDS011;18103;52.246;8.052;2023-10-09T03:52:44;24.27;;;9.60;;
31482;SDS011;18103;52.246;8.052;2023-10-09T03:55:10;24.23;;;11.43;;
31482;SDS011;18103;52.246;8.052;2023-10-09T03:57:36;24.10;;;10.60;;
31482;SDS011;18103;52.246;8.052;2023-10-09T04:00:01;25.20;;;10.37;;
31482;SDS011;18103;52.246;8.052;2023-10-09T04:02:36;29.80;;;11.00;;
31482;SDS011;18103;52.246;8.052;2023-10-09T04:05:04;28.23;;;11.37;;
31482;SDS011;18103;52.246;8.052;2023-10-09T04:07:32;21.93;;;9.03;;
31482;SDS011;18103;52.246;8.052;2023-10-09T04:09:58;28.57;;;10.50;;
31482;SDS011;18103;52.246;8.052;2023-10-09T04:12:43;28.43;;;10.40;;
31482;SDS011;18103;52.246;8.052;2023-10-09T04:15:09;22.97;;;11.43;;
31482;SDS011;18103;52.246;8.052;2023-10-09T04:17:40;25.97;;;11.17;;
31482;SDS011;18103;52.246;8.052;2023-10-09T04:20:08;26.33;;;10.07;;
31482;SDS011;18103;52.246;8.052;2023-10-09T04:22:56;26.83;;;11.40;;
31482;SDS011;18103;52.246;8.052;2023-10-09T04:25:30;28.73;;;11.73;;
31482;SDS011;18103;52.246;8.052;2023-10-09T04:28:16;22.77;;;11.00;;
31482;SDS011;18103;52.246;8.052;2023-10-09T04:30:41;28.30;;;11.17;;
31482;SDS011;18103;52.246;8.052;2023-10-09T04:33:14;32.40;;;11.37;;
31482;SDS011;18103;52.246;8.052;2023-10-09T04:36:02;23.53;;;11.63;;
31482;SDS011;18103;52.246;8.052;2023-10-09T04:38:46;24.00;;;11.80;;
31482;SDS011;18103;52.246;8.052;2023-10-09T04:41:27;28.07;;;11.30;;
31482;SDS011;18103;52.246;8.052;2023-10-09T04:43:53;28.33;;;11.93;;
31482;SDS011;18103;52.246;8.052;2023-10-09T04:46:30;25.90;;;10.87;;
31482;SDS011;18103;52.246;8.052;2023-10-09T04:49:08;26.77;;;11.07;;
31482;SDS011;18103;52.246;8.052;2023-10-09T04:51:53;28.93;;;11.03;;
31482;SDS011;18103;52.246;8.052;2023-10-09T04:54:34;26.30;;;11.00;;
31482;SDS011;18103;52.246;8.052;2023-10-09T04:57:26;24.63;;;11.03;;
31482;SDS011;18103;52.246;8.052;2023-10-09T04:59:51;29.47;;;10.87;;
31482;SDS011;18103;52.246;8.052;2023-10-09T05:02:16;26.43;;;11.53;;
31482;SDS011;18103;52.246;8.052;2023-10-09T05:04:47;27.03;;;12.30;;
31482;SDS011;18103;52.246;8.052;2023-10-09T05:07:32;25.57;;;10.67;;
31482;SDS011;18103;52.246;8.052;2023-10-09T05:10:16;24.47;;;11.00;;
31482;SDS011;18103;52.246;8.052;2023-10-09T05:12:42;26.00;;;10.50;;
31482;SDS011;18103;52.246;8.052;2023-10-09T05:15:22;27.23;;;12.10;;
31482;SDS011;18103;52.246;8.052;2023-10-09T05:17:52;27.10;;;11.53;;
31482;SDS011;18103;52.246;8.052;2023-10-09T05:20:21;23.83;;;11.93;;
31482;SDS011;18103;52.246;8.052;2023-10-09T05:22:48;23.50;;;11.43;;
31482;SDS011;18103;52.246;8.052;2023-10-09T05:25:24;31.00;;;12.73;;
31482;SDS011;18103;52.246;8.052;2023-10-09T05:28:15;28.20;;;12.87;;
31482;SDS011;18103;52.246;8.052;2023-10-09T05:30:59;27.50;;;11.80;;
31482;SDS011;18103;52.246;8.052;2023-10-09T05:33:36;28.57;;;12.77;;
31482;SDS011;18103;52.246;8.052;2023-10-09T05:36:03;26.20;;;11.73;;
31482;SDS011;18103;52.246;8.052;2023-10-09T05:39:00;29.77;;;12.30;;
31482;SDS011;18103;52.246;8.052;2023-10-09T05:41:45;26.77;;;11.77;;
31482;SDS011;18103;52.246;8.052;2023-10-09T05:44:16;35.10;;;13.00;;
31482;SDS011;18103;52.246;8.052;2023-10-09T05:47:00;32.07;;;14.03;;
31482;SDS011;18103;52.246;8.052;2023-10-09T05:49:44;30.20;;;13.60;;
31482;SDS011;18103;52.246;8.052;2023-10-09T05:52:19;30.77;;;13.73;;
31482;SDS011;18103;52.246;8.052;2023-10-09T05:55:07;30.80;;;12.87;;
31482;SDS011;18103;52.246;8.052;2023-10-09T05:57:54;32.27;;;12.60;;
31482;SDS011;18103;52.246;8.052;2023-10-09T06:00:24;37.40;;;13.53;;
31482;SDS011;18103;52.246;8.052;2023-10-09T06:03:09;31.50;;;12.93;;
31482;SDS011;18103;52.246;8.052;2023-10-09T06:05:47;31.33;;;14.17;;
31482;SDS011;18103;52.246;8.052;2023-10-09T06:08:23;33.13;;;14.30;;
31482;SDS011;18103;52.246;8.052;2023-10-09T06:11:14;34.50;;;13.97;;
31482;SDS011;18103;52.246;8.052;2023-10-09T06:13:58;32.87;;;13.43;;
31482;SDS011;18103;52.246;8.052;2023-10-09T06:16:32;36.27;;;13.33;;
31482;SDS011;18103;52.246;8.052;2023-10-09T06:19:10;39.10;;;14.43;;
31482;SDS011;18103;52.246;8.052;2023-10-09T06:21:45;33.73;;;13.70;;
31482;SDS011;18103;52.246;8.052;2023-10-09T06:24:20;35.07;;;14.23;;
31482;SDS011;18103;52.246;8.052;2023-10-09T06:26:51;31.23;;;14.00;;
31482;SDS011;18103;52.246;8.052;2023-10-09T06:29:37;32.20;;;13.40;;
31482;SDS011;18103;52.246;8.052;2023-10-09T06:32:09;34.23;;;13.37;;
31482;SDS011;18103;52.246;8.052;2023-10-09T06:35:08;33.93;;;14.70;;
31482;SDS011;18103;52.246;8.052;2023-10-09T06:37:55;33.83;;;14.20;;
31482;SDS011;18103;52.246;8.052;2023-10-09T06:40:28;27.90;;;13.50;;
31482;SDS011;18103;52.246;8.052;2023-10-09T06:43:12;37.80;;;14.40;;
31482;SDS011;18103;52.246;8.052;2023-10-09T06:45:50;31.17;;;15.03;;
31482;SDS011;18103;52.246;8.052;2023-10-09T06:48:26;31.80;;;13.77;;
31482;SDS011;18103;52.246;8.052;2023-10-09T06:53:40;34.23;;;13.57;;
31482;SDS011;18103;52.246;8.052;2023-10-09T06:56:17;30.00;;;14.60;;
31482;SDS011;18103;52.246;8.052;2023-10-09T06:58:49;31.73;;;14.20;;
31482;SDS011;18103;52.246;8.052;2023-10-09T07:01:19;32.40;;;14.50;;
31482;SDS011;18103;52.246;8.052;2023-10-09T07:03:45;34.07;;;15.07;;
31482;SDS011;18103;52.246;8.052;2023-10-09T07:06:24;34.73;;;14.47;;
31482;SDS011;18103;52.246;8.052;2023-10-09T07:09:11;35.97;;;14.20;;
31482;SDS011;18103;52.246;8.052;2023-10-09T07:11:38;32.23;;;15.53;;
31482;SDS011;18103;52.246;8.052;2023-10-09T07:14:08;34.00;;;14.77;;
31482;SDS011;18103;52.246;8.052;2023-10-09T07:19:40;33.10;;;15.27;;
31482;SDS011;18103;52.246;8.052;2023-10-09T07:22:07;29.90;;;13.80;;
31482;SDS011;18103;52.246;8.052;2023-10-09T07:24:49;33.00;;;15.63;;
31482;SDS011;18103;52.246;8.052;2023-10-09T07:27:22;33.00;;;15.47;;
31482;SDS011;18103;52.246;8.052;2023-10-09T07:30:10;29.10;;;14.27;;
31482;SDS011;18103;52.246;8.052;2023-10-09T07:32:57;33.60;;;15.13;;
31482;SDS011;18103;52.246;8.052;2023-10-09T07:35:33;36.20;;;14.97;;
31482;SDS011;18103;52.246;8.052;2023-10-09T07:38:08;36.87;;;15.83;;
31482;SDS011;18103;52.246;8.052;2023-10-09T07:40:48;35.37;;;15.73;;
31482;SDS011;18103;52.246;8.052;2023-10-09T07:43:41;33.23;;;14.37;;
31482;SDS011;18103;52.246;8.052;2023-10-09T07:46:10;36.20;;;15.30;;
31482;SDS011;18103;52.246;8.052;2023-10-09T07:49:06;30.03;;;15.47;;
31482;SDS011;18103;52.246;8.052;2023-10-09T07:51:35;35.27;;;16.50;;
31482;SDS011;18103;52.246;8.052;2023-10-09T07:54:02;31.17;;;15.13;;
31482;SDS011;18103;52.246;8.052;2023-10-09T07:56:34;33.03;;;15.53;;
31482;SDS011;18103;52.246;8.052;2023-10-09T07:59:15;33.40;;;15.67;;
31482;SDS011;18103;52.246;8.052;2023-10-09T08:01:43;34.83;;;15.73;;
31482;SDS011;18103;52.246;8.052;2023-10-09T08:04:24;35.50;;;16.37;;
31482;SDS011;18103;52.246;8.052;2023-10-09T08:07:03;37.63;;;16.27;;
31482;SDS011;18103;52.246;8.052;2023-10-09T08:09:32;37.30;;;15.93;;
31482;SDS011;18103;52.246;8.052;2023-10-09T08:12:13;37.80;;;15.73;;
31482;SDS011;18103;52.246;8.052;2023-10-09T08:15:03;40.30;;;16.77;;
31482;SDS011;18103;52.246;8.052;2023-10-09T08:20:22;35.13;;;16.17;;
31482;SDS011;18103;52.246;8.052;2023-10-09T08:22:55;37.83;;;16.47;;
31482;SDS011;18103;52.246;8.052;2023-10-09T08:25:21;35.57;;;15.73;;
31482;SDS011;18103;52.246;8.052;2023-10-09T08:27:57;30.93;;;14.93;;
31482;SDS011;18103;52.246;8.052;2023-10-09T08:30:44;28.33;;;14.83;;
31482;SDS011;18103;52.246;8.052;2023-10-09T08:33:29;34.97;;;15.40;;
31482;SDS011;18103;52.246;8.052;2023-10-09T08:36:04;30.40;;;14.87;;
31482;SDS011;18103;52.246;8.052;2023-10-09T08:38:34;31.73;;;14.70;;
31482;SDS011;18103;52.246;8.052;2023-10-09T08:41:10;26.80;;;14.93;;
31482;SDS011;18103;52.246;8.052;2023-10-09T08:43:52;31.97;;;14.23;;
31482;SDS011;18103;52.246;8.052;2023-10-09T08:46:22;39.13;;;14.53;;
31482;SDS011;18103;52.246;8.052;2023-10-09T08:48:51;28.70;;;14.40;;
31482;SDS011;18103;52.246;8.052;2023-10-09T08:51:20;35.03;;;14.87;;
31482;SDS011;18103;52.246;8.052;2023-10-09T08:53:47;31.57;;;15.53;;
31482;SDS011;18103;52.246;8.052;2023-10-09T08:56:13;31.60;;;16.53;;
31482;SDS011;18103;52.246;8.052;2023-10-09T08:58:49;31.83;;;15.23;;
31482;SDS011;18103;52.246;8.052;2023-10-09T09:01:19;28.50;;;15.20;;
31482;SDS011;18103;52.246;8.052;2023-10-09T09:03:46;31.67;;;15.13;;
31482;SDS011;18103;52.246;8.052;2023-10-09T09:06:15;27.60;;;15.47;;
31482;SDS011;18103;52.246;8.052;2023-10-09T09:08:44;31.53;;;15.53;;
31482;SDS011;18103;52.246;8.052;2023-10-09T09:11:12;37.30;;;15.73;;
31482;SDS011;18103;52.246;8.052;2023-10-09T09:13:43;33.03;;;14.57;;
31482;SDS011;18103;52.246;8.052;2023-10-09T09:16:16;32.63;;;15.17;;
31482;SDS011;18103;52.246;8.052;2023-10-09T09:21:31;35.13;;;15.83;;
31482;SDS011;18103;52.246;8.052;2023-10-09T09:24:08;33.27;;;16.30;;
31482;SDS011;18103;52.246;8.052;2023-10-09T09:26:42;35.43;;;15.87;;
31482;SDS011;18103;52.246;8.052;2023-10-09T09:29:12;30.00;;;14.73;;
31482;SDS011;18103;52.246;8.052;2023-10-09T09:31:52;32.00;;;16.50;;
31482;SDS011;18103;52.246;8.052;2023-10-09T09:34:22;31.93;;;15.20;;
31482;SDS011;18103;52.246;8.052;2023-10-09T09:36:54;32.80;;;15.40;;
31482;SDS011;18103;52.246;8.052;2023-10-09T09:39:21;31.67;;;15.97;;
31482;SDS011;18103;52.246;8.052;2023-10-09T09:41:56;36.63;;;14.73;;
31482;SDS011;18103;52.246;8.052;2023-10-09T09:44:22;34.97;;;15.63;;
31482;SDS011;18103;52.246;8.052;2023-10-09T09:46:55;38.30;;;15.97;;
31482;SDS011;18103;52.246;8.052;2023-10-09T09:49:25;32.70;;;15.73;;
31482;SDS011;18103;52.246;8.052;2023-10-09T09:51:56;34.70;;;14.13;;
31482;SDS011;18103;52.246;8.052;2023-10-09T09:54:35;27.10;;;13.57;;
31482;SDS011;18103;52.246;8.052;2023-10-09T09:57:04;37.13;;;15.60;;
31482;SDS011;18103;52.246;8.052;2023-10-09T09:59:39;29.77;;;15.53;;
31482;SDS011;18103;52.246;8.052;2023-10-09T10:02:06;30.90;;;15.57;;
31482;SDS011;18103;52.246;8.052;2023-10-09T10:04:36;31.43;;;14.47;;
31482;SDS011;18103;52.246;8.052;2023-10-09T10:07:05;35.17;;;15.70;;
31482;SDS011;18103;52.246;8.052;2023-10-09T10:09:37;30.10;;;14.80;;
31482;SDS011;18103;52.246;8.052;2023-10-09T10:12:09;30.33;;;15.27;;
31482;SDS011;18103;52.246;8.052;2023-10-09T10:14:52;29.87;;;15.00;;
31482;SDS011;18103;52.246;8.052;2023-10-09T10:18:06;30.03;;;15.57;;
31482;SDS011;18103;52.246;8.052;2023-10-09T10:20:32;32.40;;;15.00;;
31482;SDS011;18103;52.246;8.052;2023-10-09T10:23:21;31.93;;;16.63;;
31482;SDS011;18103;52.246;8.052;2023-10-09T10:25:50;36.83;;;16.07;;
31482;SDS011;18103;52.246;8.052;2023-10-09T10:28:25;28.23;;;16.03;;
31482;SDS011;18103;52.246;8.052;2023-10-09T10:31:07;33.17;;;16.00;;
31482;SDS011;18103;52.246;8.052;2023-10-09T10:36:21;29.80;;;17.63;;
31482;SDS011;18103;52.246;8.052;2023-10-09T10:39:01;30.83;;;15.60;;
31482;SDS011;18103;52.246;8.052;2023-10-09T10:41:56;33.60;;;16.20;;
31482;SDS011;18103;52.246;8.052;2023-10-09T10:44:42;34.47;;;15.50;;
31482;SDS011;18103;52.246;8.052;2023-10-09T10:47:11;29.47;;;15.53;;
31482;SDS011;18103;52.246;8.052;2023-10-09T10:49:59;34.00;;;16.63;;
31482;SDS011;18103;52.246;8.052;2023-10-09T10:52:49;38.13;;;16.80;;
31482;SDS011;18103;52.246;8.052;2023-10-09T10:55:22;38.00;;;17.80;;
31482;SDS011;18103;52.246;8.052;2023-10-09T10:57:51;36.63;;;16.33;;
31482;SDS011;18103;52.246;8.052;2023-10-09T11:00:25;33.33;;;16.77;;
31482;SDS011;18103;52.246;8.052;2023-10-09T11:03:16;38.20;;;17.27;;
31482;SDS011;18103;52.246;8.052;2023-10-09T11:05:54;35.10;;;17.53;;
31482;SDS011;18103;52.246;8.052;2023-10-09T11:08:24;35.63;;;16.83;;
31482;SDS011;18103;52.246;8.052;2023-10-09T11:11:09;36.10;;;16.97;;
31482;SDS011;18103;52.246;8.052;2023-10-09T11:13:40;32.70;;;16.23;;
31482;SDS011;18103;52.246;8.052;2023-10-09T11:16:22;28.83;;;16.07;;
31482;SDS011;18103;52.246;8.052;2023-10-09T11:19:11;28.37;;;16.17;;
31482;SDS011;18103;52.246;8.052;2023-10-09T11:21:52;32.63;;;15.93;;
31482;SDS011;18103;52.246;8.052;2023-10-09T11:24:25;35.87;;;16.73;;
31482;SDS011;18103;52.246;8.052;2023-10-09T11:26:52;26.73;;;16.17;;
31482;SDS011;18103;52.246;8.052;2023-10-09T11:29:22;34.47;;;16.50;;
31482;SDS011;18103;52.246;8.052;2023-10-09T11:32:01;29.10;;;16.40;;
31482;SDS011;18103;52.246;8.052;2023-10-09T11:34:32;38.47;;;17.67;;
31482;SDS011;18103;52.246;8.052;2023-10-09T11:37:03;33.07;;;16.10;;
31482;SDS011;18103;52.246;8.052;2023-10-09T11:39:37;31.10;;;17.60;;
31482;SDS011;18103;52.246;8.052;2023-10-09T11:42:17;40.00;;;17.73;;
31482;SDS011;18103;52.246;8.052;2023-10-09T11:45:19;34.03;;;17.53;;
31482;SDS011;18103;52.246;8.052;2023-10-09T11:47:52;35.30;;;17.07;;
31482;SDS011;18103;52.246;8.052;2023-10-09T11:50:43;37.03;;;17.17;;
31482;SDS011;18103;52.246;8.052;2023-10-09T11:53:19;30.33;;;15.90;;
31482;SDS011;18103;52.246;8.052;2023-10-09T11:55:47;32.87;;;17.17;;
31482;SDS011;18103;52.246;8.052;2023-10-09T11:58:14;37.40;;;16.90;;
31482;SDS011;18103;52.246;8.052;2023-10-09T12:00:47;33.60;;;18.23;;
31482;SDS011;18103;52.246;8.052;2023-10-09T12:03:15;32.60;;;16.80;;
31482;SDS011;18103;52.246;8.052;2023-10-09T12:05:41;33.57;;;17.03;;
31482;SDS011;18103;52.246;8.052;2023-10-09T12:08:12;35.70;;;17.47;;
31482;SDS011;18103;52.246;8.052;2023-10-09T12:10:40;35.70;;;18.10;;
31482;SDS011;18103;52.246;8.052;2023-10-09T12:13:07;35.10;;;17.53;;
31482;SDS011;18103;52.246;8.052;2023-10-09T12:15:32;34.27;;;17.13;;
31482;SDS011;18103;52.246;8.052;2023-10-09T12:18:07;32.13;;;15.07;;
31482;SDS011;18103;52.246;8.052;2023-10-09T12:20:40;32.67;;;16.33;;
31482;SDS011;18103;52.246;8.052;2023-10-09T12:23:06;35.33;;;16.07;;
31482;SDS011;18103;52.246;8.052;2023-10-09T12:25:32;35.37;;;17.70;;
31482;SDS011;18103;52.246;8.052;2023-10-09T12:28:01;38.93;;;17.60;;
31482;SDS011;18103;52.246;8.052;2023-10-09T12:30:28;35.70;;;17.87;;
31482;SDS011;18103;52.246;8.052;2023-10-09T12:33:04;31.90;;;17.37;;
31482;SDS011;18103;52.246;8.052;2023-10-09T12:35:35;25.73;;;15.03;;
31482;SDS011;18103;52.246;8.052;2023-10-09T12:38:02;31.33;;;15.93;;
31482;SDS011;18103;52.246;8.052;2023-10-09T12:40:34;34.60;;;16.67;;
31482;SDS011;18103;52.246;8.052;2023-10-09T12:43:01;30.20;;;14.33;;
31482;SDS011;18103;52.246;8.052;2023-10-09T12:45:33;28.07;;;16.77;;
31482;SDS011;18103;52.246;8.052;2023-10-09T12:47:59;36.43;;;14.50;;
31482;SDS011;18103;52.246;8.052;2023-10-09T12:50:25;26.53;;;13.87;;
31482;SDS011;18103;52.246;8.052;2023-10-09T12:52:57;28.17;;;13.47;;
31482;SDS011;18103;52.246;8.052;2023-10-09T12:55:27;27.93;;;14.13;;
31482;SDS011;18103;52.246;8.052;2023-10-09T12:57:57;28.13;;;14.40;;
31482;SDS011;18103;52.246;8.052;2023-10-09T13:00:26;28.57;;;13.17;;
31482;SDS011;18103;52.246;8.052;2023-10-09T13:02:57;22.53;;;12.47;;
31482;SDS011;18103;52.246;8.052;2023-10-09T13:05:26;24.70;;;12.43;;
31482;SDS011;18103;52.246;8.052;2023-10-09T13:07:54;21.07;;;12.77;;
31482;SDS011;18103;52.246;8.052;2023-10-09T13:10:25;19.47;;;10.30;;
31482;SDS011;18103;52.246;8.052;2023-10-09T13:12:50;26.87;;;11.47;;
31482;SDS011;18103;52.246;8.052;2023-10-09T13:15:20;21.87;;;12.17;;
31482;SDS011;18103;52.246;8.052;2023-10-09T13:17:46;19.60;;;10.30;;
31482;SDS011;18103;52.246;8.052;2023-10-09T13:20:12;21.77;;;10.43;;
31482;SDS011;18103;52.246;8.052;2023-10-09T13:22:44;26.73;;;10.23;;
31482;SDS011;18103;52.246;8.052;2023-10-09T13:25:13;25.63;;;11.30;;
31482;SDS011;18103;52.246;8.052;2023-10-09T13:27:42;23.07;;;9.80;;
31482;SDS011;18103;52.246;8.052;2023-10-09T13:30:15;26.47;;;10.63;;
31482;SDS011;18103;52.246;8.052;2023-10-09T13:32:50;18.13;;;9.80;;
31482;SDS011;18103;52.246;8.052;2023-10-09T13:35:18;18.93;;;9.77;;
31482;SDS011;18103;52.246;8.052;2023-10-09T13:37:45;20.93;;;9.23;;
31482;SDS011;18103;52.246;8.052;2023-10-09T13:40:19;23.93;;;9.47;;
31482;SDS011;18103;52.246;8.052;2023-10-09T13:42:52;21.80;;;8.97;;
31482;SDS011;18103;52.246;8.052;2023-10-09T13:45:23;34.13;;;10.00;;
31482;SDS011;18103;52.246;8.052;2023-10-09T13:47:58;24.40;;;9.17;;
31482;SDS011;18103;52.246;8.052;2023-10-09T13:50:27;18.73;;;8.97;;
31482;SDS011;18103;52.246;8.052;2023-10-09T13:52:57;18.90;;;8.93;;
31482;SDS011;18103;52.246;8.052;2023-10-09T13:55:24;20.90;;;8.67;;
31482;SDS011;18103;52.246;8.052;2023-10-09T13:57:56;14.67;;;7.50;;
31482;SDS011;18103;52.246;8.052;2023-10-09T14:00:25;14.87;;;7.43;;
31482;SDS011;18103;52.246;8.052;2023-10-09T14:03:00;20.87;;;7.50;;
31482;SDS011;18103;52.246;8.052;2023-10-09T14:05:36;15.87;;;7.47;;
31482;SDS011;18103;52.246;8.052;2023-10-09T14:08:16;13.10;;;6.93;;
31482;SDS011;18103;52.246;8.052;2023-10-09T14:10:44;14.27;;;6.93;;
31482;SDS011;18103;52.246;8.052;2023-10-09T14:13:13;22.43;;;7.83;;
31482;SDS011;18103;52.246;8.052;2023-10-09T14:15:39;11.43;;;6.77;;
31482;SDS011;18103;52.246;8.052;2023-10-09T14:18:08;14.57;;;7.13;;
31482;SDS011;18103;52.246;8.052;2023-10-09T14:20:37;12.57;;;6.70;;
31482;SDS011;18103;52.246;8.052;2023-10-09T14:23:06;12.43;;;6.40;;
31482;SDS011;18103;52.246;8.052;2023-10-09T14:25:35;19.27;;;7.63;;
31482;SDS011;18103;52.246;8.052;2023-10-09T14:28:07;17.30;;;7.30;;
31482;SDS011;18103;52.246;8.052;2023-10-09T14:30:43;11.87;;;5.80;;
31482;SDS011;18103;52.246;8.052;2023-10-09T14:33:11;18.23;;;6.83;;
31482;SDS011;18103;52.246;8.052;2023-10-09T14:35:48;15.80;;;6.30;;
31482;SDS011;18103;52.246;8.052;2023-10-09T14:38:13;11.90;;;6.40;;
31482;SDS011;18103;52.246;8.052;2023-10-09T14:40:44;16.43;;;6.47;;
31482;SDS011;18103;52.246;8.052;2023-10-09T14:43:10;12.77;;;6.07;;
31482;SDS011;18103;52.246;8.052;2023-10-09T14:45:46;14.60;;;6.87;;
31482;SDS011;18103;52.246;8.052;2023-10-09T14:48:15;14.13;;;6.20;;
31482;SDS011;18103;52.246;8.052;2023-10-09T14:50:46;16.83;;;7.07;;
31482;SDS011;18103;52.246;8.052;2023-10-09T14:53:17;14.80;;;5.70;;
31482;SDS011;18103;52.246;8.052;2023-10-09T14:55:44;16.50;;;5.97;;
31482;SDS011;18103;52.246;8.052;2023-10-09T14:58:14;11.47;;;5.53;;
31482;SDS011;18103;52.246;8.052;2023-10-09T15:00:40;19.50;;;6.50;;
31482;SDS011;18103;52.246;8.052;2023-10-09T15:03:12;16.67;;;5.67;;
31482;SDS011;18103;52.246;8.052;2023-10-09T15:05:43;14.77;;;5.50;;
31482;SDS011;18103;52.246;8.052;2023-10-09T15:08:10;17.43;;;5.30;;
31482;SDS011;18103;52.246;8.052;2023-10-09T15:13:21;12.10;;;6.07;;
31482;SDS011;18103;52.246;8.052;2023-10-09T15:15:52;15.50;;;6.00;;
31482;SDS011;18103;52.246;8.052;2023-10-09T15:18:19;15.53;;;6.00;;